Marshall, Alaska
Current Conditions -  °F | °C
As of 7:56 AM on Wednesday 22 Oct 2014 (Local Time) from PADM Reporting Station
Clear Clear  
Wind Chill: 27°   Ceiling: Unl
Heat Index: 27°   Visibility: 10mi
Dew Point: 23°   Wind: 0mph
Humidity: 84%   Direction: NA
Pressure: 29.76"   Gusts: NA
Location:  61.88°N, 162.08°W
Report Text: PADM 221556Z AUTO 00000KT 10SM CLR M03/M05 A2976 RMK AO2 TSNO T10271050 SLP066 $
Loading
Personal Weather Stations






























Interactive Weather Map
Tropical Storm Tracking
New forecast layout! Learn more

10-Day Weather Forecast

Advertisements
Track Severe Weather on mobile